createdAt,value
2018-09-04T00:00:45.987Z,40.07
2018-09-04T00:03:15.318Z,37.77
2018-09-04T00:05:44.697Z,37.23
2018-09-04T00:08:13.983Z,35.90
2018-09-04T00:10:43.321Z,37.03
2018-09-04T00:13:13.365Z,35.60
2018-09-04T00:15:42.821Z,35.33
2018-09-04T00:18:12.357Z,35.07
2018-09-04T00:20:41.837Z,34.13
2018-09-04T00:23:11.357Z,35.27
2018-09-04T00:25:41.271Z,34.73
2018-09-04T00:28:10.731Z,35.97
2018-09-04T00:30:40.509Z,35.57
2018-09-04T00:33:09.868Z,34.33
2018-09-04T00:35:39.882Z,35.03
2018-09-04T00:38:09.589Z,34.10
2018-09-04T00:40:40.120Z,32.17
2018-09-04T00:43:10.261Z,32.33
2018-09-04T00:45:39.782Z,31.27
2018-09-04T00:48:10.990Z,31.20
2018-09-04T00:50:40.428Z,32.13
2018-09-04T00:53:10.465Z,30.87
2018-09-04T00:55:40.284Z,30.40
2018-09-04T00:58:09.992Z,29.17
2018-09-04T01:00:39.347Z,29.23
2018-09-04T01:03:08.655Z,27.93
2018-09-04T01:05:37.876Z,27.67
2018-09-04T01:08:07.136Z,28.07
2018-09-04T01:10:36.426Z,27.10
2018-09-04T01:13:05.790Z,27.50
2018-09-04T01:15:35.084Z,26.67
2018-09-04T01:18:04.556Z,28.37
2018-09-04T01:20:34.154Z,28.47
2018-09-04T01:23:03.774Z,28.53
2018-09-04T01:25:33.170Z,29.43
2018-09-04T01:28:02.614Z,28.50
2018-09-04T01:30:31.962Z,27.67
2018-09-04T01:33:01.998Z,27.40
2018-09-04T01:35:31.591Z,27.30
2018-09-04T01:38:01.422Z,28.10
2018-09-04T01:40:31.646Z,27.17
2018-09-04T01:43:00.998Z,28.33
2018-09-04T01:45:30.440Z,30.37
2018-09-04T01:47:59.853Z,31.13
2018-09-04T01:50:29.231Z,31.07
2018-09-04T01:52:58.804Z,31.07
2018-09-04T01:55:28.385Z,30.87
2018-09-04T01:57:58.377Z,30.13
2018-09-04T02:00:27.935Z,31.03
2018-09-04T02:02:57.317Z,32.03
2018-09-04T02:05:27.136Z,31.97
2018-09-04T02:07:56.915Z,32.00
2018-09-04T02:10:26.557Z,31.87
2018-09-04T02:12:56.649Z,30.60
2018-09-04T02:15:26.235Z,31.37
2018-09-04T02:17:55.583Z,31.07
2018-09-04T02:20:25.311Z,31.93
2018-09-04T02:22:54.695Z,33.37
2018-09-04T02:25:24.889Z,33.23
2018-09-04T02:27:54.245Z,34.07
2018-09-04T02:30:23.835Z,33.60
2018-09-04T02:32:53.262Z,33.03
2018-09-04T02:35:23.093Z,34.50
2018-09-04T02:37:52.517Z,34.27
2018-09-04T02:40:21.959Z,36.20
2018-09-04T02:42:51.441Z,37.20
2018-09-04T02:45:20.843Z,37.20
2018-09-04T02:47:50.317Z,36.53
2018-09-04T02:50:19.913Z,37.77
2018-09-04T02:52:49.278Z,38.97
2018-09-04T02:55:18.482Z,37.43
2018-09-04T02:57:48.131Z,37.43
2018-09-04T03:00:17.687Z,38.07
2018-09-04T03:02:47.371Z,38.73
2018-09-04T03:05:16.855Z,37.27
2018-09-04T03:07:46.196Z,36.20
2018-09-04T03:10:15.566Z,35.13
2018-09-04T03:12:45.164Z,35.67
2018-09-04T03:15:14.724Z,35.60
2018-09-04T03:17:44.018Z,34.20
2018-09-04T03:20:13.355Z,34.60
2018-09-04T03:22:43.169Z,35.03
2018-09-04T03:25:12.576Z,35.50
2018-09-04T03:27:42.044Z,35.07
2018-09-04T03:30:11.495Z,33.57
2018-09-04T03:32:41.110Z,34.20
2018-09-04T03:35:10.575Z,33.30
2018-09-04T03:37:40.700Z,33.50
2018-09-04T03:40:11.391Z,33.63
2018-09-04T03:42:41.056Z,33.80
2018-09-04T03:45:11.068Z,34.60
2018-09-04T03:47:41.269Z,34.77
2018-09-04T03:50:11.166Z,34.13
2018-09-04T03:52:40.806Z,35.07
2018-09-04T03:55:10.327Z,35.33
2018-09-04T03:57:40.402Z,34.63
2018-09-04T04:00:09.845Z,34.37
2018-09-04T04:02:40.091Z,35.07
2018-09-04T04:05:10.171Z,37.13
2018-09-04T04:07:41.031Z,36.83
2018-09-04T04:10:10.264Z,38.03
2018-09-04T04:12:40.051Z,37.37
2018-09-04T04:15:09.347Z,39.70
2018-09-04T04:17:38.845Z,39.10
2018-09-04T04:20:08.555Z,38.47
2018-09-04T04:22:38.379Z,40.00
2018-09-04T04:25:07.805Z,38.63
2018-09-04T04:27:37.277Z,40.13
2018-09-04T04:30:07.465Z,40.50
2018-09-04T04:32:36.985Z,39.70
2018-09-04T04:35:06.830Z,40.13
2018-09-04T04:37:36.374Z,40.05
2018-09-04T04:40:06.740Z,41.57
2018-09-04T04:42:36.319Z,40.40
2018-09-04T04:45:05.920Z,41.33
2018-09-04T04:47:40.722Z,41.67
2018-09-04T04:50:10.202Z,41.37
2018-09-04T04:52:39.810Z,43.90
2018-09-04T04:55:09.707Z,44.53
2018-09-04T04:57:39.365Z,42.97
2018-09-04T05:00:09.542Z,44.03
2018-09-04T05:02:39.672Z,45.00
2018-09-04T05:05:09.249Z,47.50
2018-09-04T05:07:38.744Z,45.73
2018-09-04T05:10:08.261Z,48.23
2018-09-04T05:12:38.200Z,46.73
2018-09-04T05:15:07.758Z,46.80
2018-09-04T05:17:37.788Z,48.37
2018-09-04T05:20:09.100Z,46.80
2018-09-04T05:22:38.597Z,45.37
2018-09-04T05:25:09.152Z,45.00
2018-09-04T05:27:39.500Z,45.33
2018-09-04T05:30:09.242Z,42.77
2018-09-04T05:32:48.280Z,42.33
2018-09-04T05:35:19.021Z,41.73
2018-09-04T05:37:48.646Z,40.87
2018-09-04T05:40:18.014Z,40.93
2018-09-04T05:42:52.920Z,40.50
2018-09-04T05:45:24.180Z,40.20
2018-09-04T05:47:59.029Z,38.97
2018-09-04T05:50:28.601Z,40.33
2018-09-04T05:52:58.367Z,41.23
2018-09-04T05:55:28.988Z,39.93
2018-09-04T05:57:58.795Z,39.80
2018-09-04T06:00:30.626Z,39.13
2018-09-04T06:03:00.254Z,38.93
2018-09-04T06:05:30.624Z,38.35
2018-09-04T06:08:04.311Z,38.00
2018-09-04T06:10:33.734Z,37.63
2018-09-04T06:13:03.617Z,39.40
2018-09-04T06:15:32.965Z,39.47
2018-09-04T06:18:02.531Z,39.03
2018-09-04T06:20:32.032Z,38.73
2018-09-04T06:23:02.142Z,38.37
2018-09-04T06:25:33.054Z,39.60
2018-09-04T06:28:02.747Z,38.67
2018-09-04T06:30:32.323Z,37.73
2018-09-04T06:33:01.673Z,39.57
2018-09-04T06:35:31.851Z,39.03
2018-09-04T06:38:03.318Z,40.40
2018-09-04T06:40:32.681Z,39.70
2018-09-04T06:43:02.333Z,40.97
2018-09-04T06:45:31.707Z,40.80
2018-09-04T06:48:01.250Z,40.63
2018-09-04T06:50:31.363Z,41.27
2018-09-04T06:53:00.783Z,41.77
2018-09-04T06:55:30.095Z,41.93
2018-09-04T06:57:59.913Z,43.17
2018-09-04T07:00:29.369Z,42.13
2018-09-04T07:03:00.469Z,41.60
2018-09-04T07:05:29.771Z,42.87
2018-09-04T07:07:59.186Z,43.93
2018-09-04T07:10:29.263Z,42.73
2018-09-04T07:12:59.555Z,46.33
2018-09-04T07:15:28.896Z,46.27
2018-09-04T07:17:58.960Z,48.53
2018-09-04T07:20:28.473Z,47.30
2018-09-04T07:22:58.231Z,48.07
2018-09-04T07:25:28.096Z,47.43
2018-09-04T07:27:57.721Z,50.70
2018-09-04T07:30:27.761Z,50.73
2018-09-04T07:32:57.052Z,47.50
2018-09-04T07:35:26.550Z,50.03
2018-09-04T07:37:56.162Z,47.57
2018-09-04T07:40:25.680Z,47.97
2018-09-04T07:42:55.882Z,45.03
2018-09-04T07:45:25.192Z,45.37
2018-09-04T07:47:54.938Z,45.57
2018-09-04T07:50:25.154Z,44.83
2018-09-04T07:52:54.558Z,45.93
2018-09-04T07:55:24.953Z,44.47
2018-09-04T07:57:54.718Z,45.23
2018-09-04T08:00:24.331Z,44.77
2018-09-04T08:02:53.888Z,46.33
2018-09-04T08:05:23.408Z,45.10
2018-09-04T08:07:53.072Z,46.50
2018-09-04T08:10:23.344Z,47.43
2018-09-04T08:12:53.315Z,47.97
2018-09-04T08:15:23.068Z,47.37
2018-09-04T08:17:52.921Z,47.77
2018-09-04T08:20:22.740Z,48.13
2018-09-04T08:22:54.507Z,49.20
2018-09-04T08:25:24.687Z,48.63
2018-09-04T08:27:54.085Z,50.60
2018-09-04T08:30:24.035Z,47.93
2018-09-04T08:32:54.224Z,49.50
2018-09-04T08:35:23.663Z,50.97
2018-09-04T08:37:58.113Z,46.20
2018-09-04T08:40:28.451Z,42.37
2018-09-04T08:42:58.209Z,42.70
2018-09-04T08:45:27.912Z,44.07
2018-09-04T08:48:00.022Z,41.40
2018-09-04T08:50:31.318Z,41.83
2018-09-04T08:53:00.800Z,41.83
2018-09-04T08:55:31.075Z,40.03
2018-09-04T08:58:00.851Z,39.37
2018-09-04T09:00:31.599Z,40.00
2018-09-04T09:03:01.878Z,40.57
2018-09-04T09:05:32.085Z,37.63
2018-09-04T09:08:01.651Z,39.40
2018-09-04T09:10:31.119Z,38.17
2018-09-04T09:13:00.457Z,37.87
2018-09-04T09:15:30.581Z,39.20
2018-09-04T09:18:00.019Z,40.00
2018-09-04T09:20:29.455Z,38.13
2018-09-04T09:22:59.914Z,39.63
2018-09-04T09:25:29.375Z,40.83
2018-09-04T09:27:58.915Z,40.67
2018-09-04T09:30:28.504Z,39.00
2018-09-04T09:32:57.990Z,39.57
2018-09-04T09:35:27.921Z,39.57
2018-09-04T09:37:57.222Z,40.33
2018-09-04T09:40:26.563Z,39.70
2018-09-04T09:42:55.874Z,40.17
2018-09-04T09:45:25.371Z,39.97
2018-09-04T09:47:55.211Z,39.33
2018-09-04T09:50:24.805Z,37.23
2018-09-04T09:52:54.131Z,38.70
2018-09-04T09:55:23.843Z,34.57
2018-09-04T09:57:53.617Z,36.37
2018-09-04T10:00:28.343Z,36.93
2018-09-04T10:03:03.065Z,37.23
2018-09-04T10:05:32.530Z,37.47
2018-09-04T10:08:01.938Z,37.47
2018-09-04T10:10:31.623Z,36.10
2018-09-04T10:13:01.244Z,34.77
2018-09-04T10:15:31.414Z,36.43
2018-09-04T10:18:02.194Z,35.20
2018-09-04T10:20:31.717Z,43.03
2018-09-04T10:23:01.281Z,42.73
2018-09-04T10:25:30.986Z,42.37
2018-09-04T10:28:00.645Z,38.67
2018-09-04T10:30:30.982Z,37.33
2018-09-04T10:33:00.459Z,33.57
2018-09-04T10:35:29.845Z,32.30
2018-09-04T10:38:01.045Z,34.07
2018-09-04T10:40:37.446Z,33.63
2018-09-04T10:43:06.939Z,32.57
2018-09-04T10:45:42.033Z,32.27
2018-09-04T10:48:16.905Z,31.93
2018-09-04T10:50:46.581Z,32.27
2018-09-04T10:53:16.579Z,34.03
2018-09-04T10:55:46.156Z,33.07
2018-09-04T10:58:15.600Z,32.97
2018-09-04T11:00:45.576Z,31.80
2018-09-04T11:03:15.021Z,30.73
2018-09-04T11:05:44.721Z,31.80
2018-09-04T11:08:14.013Z,31.10
2018-09-04T11:10:43.386Z,31.80
2018-09-04T11:13:13.126Z,31.13
2018-09-04T11:15:42.611Z,31.33
2018-09-04T11:18:12.289Z,31.07
2018-09-04T11:20:41.825Z,32.07
2018-09-04T11:23:11.224Z,31.57
2018-09-04T11:25:40.877Z,33.37
2018-09-04T11:28:10.622Z,32.05
2018-09-04T11:30:40.377Z,32.57
2018-09-04T11:33:09.814Z,34.33
2018-09-04T11:35:39.729Z,32.17
2018-09-04T11:38:09.289Z,34.80
2018-09-04T11:40:38.793Z,33.57
2018-09-04T11:43:08.817Z,34.93
2018-09-04T11:45:38.438Z,33.93
2018-09-04T11:48:08.045Z,34.00
2018-09-04T11:50:37.623Z,34.20
2018-09-04T11:53:07.096Z,33.27
2018-09-04T11:55:36.805Z,30.93
2018-09-04T11:58:06.471Z,33.43
2018-09-04T12:00:38.905Z,33.20
2018-09-04T12:03:09.618Z,33.70
2018-09-04T12:05:39.145Z,34.05
2018-09-04T12:08:08.944Z,33.83
2018-09-04T12:10:39.354Z,33.90
2018-09-04T12:13:08.697Z,35.37
2018-09-04T12:15:39.734Z,36.17
2018-09-04T12:18:10.073Z,37.10
2018-09-04T12:20:45.486Z,35.97
2018-09-04T12:23:16.169Z,34.00
2018-09-04T12:25:47.850Z,33.00
2018-09-04T12:28:17.177Z,32.73
2018-09-04T12:30:46.906Z,33.93
2018-09-04T12:33:17.162Z,32.93
2018-09-04T12:35:46.924Z,31.33
2018-09-04T12:38:19.518Z,32.57
2018-09-04T12:40:49.648Z,31.97
2018-09-04T12:43:19.128Z,33.57
2018-09-04T12:45:52.335Z,33.00
2018-09-04T12:48:29.379Z,33.10
2018-09-04T12:51:01.095Z,32.90
2018-09-04T12:53:31.588Z,34.80
2018-09-04T12:56:02.147Z,33.83
2018-09-04T12:58:32.184Z,35.70
2018-09-04T13:01:01.910Z,35.73
2018-09-04T13:03:31.460Z,34.37
2018-09-04T13:06:00.820Z,36.87
2018-09-04T13:08:32.147Z,37.37
2018-09-04T13:11:02.171Z,35.80
2018-09-04T13:13:31.782Z,35.67
2018-09-04T13:16:02.183Z,36.37
2018-09-04T13:18:31.927Z,36.30
2018-09-04T13:21:01.314Z,37.63
2018-09-04T13:23:32.674Z,38.40
2018-09-04T13:26:02.361Z,39.67
2018-09-04T13:28:32.335Z,38.20
2018-09-04T13:31:02.883Z,38.37
2018-09-04T13:33:32.913Z,39.67
2018-09-04T13:36:02.959Z,38.13
2018-09-04T13:38:33.974Z,39.60
2018-09-04T13:41:08.187Z,38.07
2018-09-04T13:43:39.509Z,39.90
2018-09-04T13:46:08.917Z,40.10
2018-09-04T13:48:38.352Z,39.77
2018-09-04T13:51:08.673Z,38.30
2018-09-04T13:53:38.215Z,38.83
2018-09-04T13:56:07.631Z,40.20
2018-09-04T13:58:37.193Z,38.40
2018-09-04T14:01:07.069Z,37.90
2018-09-04T14:03:36.615Z,36.87
2018-09-04T14:06:06.295Z,35.63
2018-09-04T14:08:35.909Z,36.70
2018-09-04T14:11:22.431Z,34.50
2018-09-04T14:13:52.633Z,34.27
2018-09-04T14:16:24.181Z,35.77
2018-09-04T14:18:54.449Z,34.03
2018-09-04T14:21:24.993Z,34.20
2018-09-04T14:23:55.855Z,35.70
2018-09-04T14:26:26.444Z,28.30
2018-09-04T14:29:07.540Z,27.93
2018-09-04T14:31:25.594Z,27.93
2018-09-04T14:33:54.912Z,27.10
2018-09-04T14:36:24.815Z,26.03
2018-09-04T14:38:54.874Z,26.27
2018-09-04T14:41:24.786Z,25.93
2018-09-04T14:43:54.624Z,25.20
2018-09-04T14:46:24.508Z,26.80
2018-09-04T14:48:53.889Z,26.77
2018-09-04T14:51:23.339Z,26.50
2018-09-04T14:53:53.132Z,26.40
2018-09-04T14:56:22.938Z,25.00
2018-09-04T14:58:52.648Z,24.93
2018-09-04T15:01:22.432Z,26.47
2018-09-04T15:03:52.534Z,25.57
2018-09-04T15:06:22.554Z,27.67
2018-09-04T15:08:52.126Z,29.40
2018-09-04T15:11:22.396Z,27.17
2018-09-04T15:13:52.164Z,26.60
2018-09-04T15:16:21.948Z,26.67
2018-09-04T15:18:52.423Z,30.40
2018-09-04T15:21:22.780Z,28.57
2018-09-04T15:23:52.212Z,26.60
2018-09-04T15:26:21.960Z,30.90
2018-09-04T15:28:52.433Z,28.80
2018-09-04T15:31:22.678Z,30.70
2018-09-04T15:33:52.831Z,29.90
2018-09-04T15:36:22.449Z,30.10
2018-09-04T15:38:51.950Z,33.10
2018-09-04T15:41:22.225Z,31.73
2018-09-04T15:43:51.955Z,32.13
2018-09-04T15:46:23.718Z,31.17
2018-09-04T15:48:58.999Z,33.67
2018-09-04T15:51:28.507Z,32.90
2018-09-04T15:53:58.025Z,30.43
2018-09-04T15:56:28.193Z,34.60
2018-09-04T15:58:57.853Z,35.50
2018-09-04T16:01:27.403Z,37.97
2018-09-04T16:03:57.335Z,34.03
2018-09-04T16:06:26.837Z,32.00
2018-09-04T16:08:56.210Z,32.63
2018-09-04T16:11:25.895Z,32.97
2018-09-04T16:13:55.526Z,32.33
2018-09-04T16:16:25.231Z,28.93
2018-09-04T16:18:54.680Z,27.83
2018-09-04T16:21:24.044Z,26.53
2018-09-04T16:23:54.335Z,26.40
2018-09-04T16:26:23.968Z,26.20
2018-09-04T16:28:54.324Z,24.83
2018-09-04T16:31:24.398Z,24.43
2018-09-04T16:33:53.941Z,23.13
2018-09-04T16:36:23.496Z,20.63
2018-09-04T16:38:53.194Z,22.17
2018-09-04T16:41:22.772Z,22.33
2018-09-04T16:43:52.545Z,22.53
2018-09-04T16:46:22.074Z,22.53
2018-09-04T16:48:53.683Z,22.83
2018-09-04T16:51:23.384Z,23.90
2018-09-04T16:53:54.634Z,24.53
2018-09-04T16:56:24.253Z,24.70
2018-09-04T16:58:53.660Z,26.33
2018-09-04T17:01:24.120Z,25.83
2018-09-04T17:03:54.038Z,26.20
2018-09-04T17:06:24.079Z,27.30
2018-09-04T17:08:53.800Z,28.10
2018-09-04T17:11:24.496Z,27.77
2018-09-04T17:13:54.684Z,29.47
2018-09-04T17:16:24.642Z,29.13
2018-09-04T17:18:54.459Z,29.23
2018-09-04T17:21:24.770Z,30.07
2018-09-04T17:23:54.170Z,31.57
2018-09-04T17:26:23.785Z,30.53
2018-09-04T17:28:53.715Z,30.23
2018-09-04T17:31:23.289Z,29.77
2018-09-04T17:33:52.915Z,28.67
2018-09-04T17:36:22.505Z,28.37
2018-09-04T17:38:52.016Z,28.37
2018-09-04T17:41:21.603Z,27.27
2018-09-04T17:43:51.795Z,27.70
2018-09-04T17:46:21.484Z,28.33
2018-09-04T17:48:50.924Z,28.00
2018-09-04T17:51:20.693Z,29.40
2018-09-04T17:53:50.272Z,29.67
2018-09-04T17:56:19.997Z,28.47
2018-09-04T17:58:49.328Z,29.17
2018-09-04T18:01:18.711Z,28.85
2018-09-04T18:03:48.530Z,28.87
2018-09-04T18:06:18.579Z,30.13
2018-09-04T18:08:48.292Z,29.57
2018-09-04T18:11:17.735Z,29.30
2018-09-04T18:13:47.610Z,31.33
2018-09-04T18:16:17.172Z,31.43
2018-09-04T18:18:46.503Z,33.30
2018-09-04T18:21:16.955Z,32.17
2018-09-04T18:23:47.213Z,31.63
2018-09-04T18:26:17.295Z,32.63
2018-09-04T18:28:47.264Z,34.03
2018-09-04T18:31:18.202Z,34.30
2018-09-04T18:33:48.504Z,36.03
2018-09-04T18:36:18.666Z,37.33
2018-09-04T18:38:49.018Z,37.30
2018-09-04T18:41:18.619Z,37.67
2018-09-04T18:43:48.078Z,36.30
2018-09-04T18:46:17.568Z,37.13
2018-09-04T18:48:47.741Z,36.87
2018-09-04T18:51:17.436Z,37.07
2018-09-04T18:53:46.912Z,38.03
2018-09-04T18:56:16.252Z,40.03
2018-09-04T18:58:46.214Z,39.20
2018-09-04T19:01:16.478Z,41.10
2018-09-04T19:03:45.921Z,42.03
2018-09-04T19:06:15.318Z,40.63
2018-09-04T19:08:45.325Z,41.80
2018-09-04T19:11:14.830Z,43.43
2018-09-04T19:13:44.454Z,42.00
2018-09-04T19:16:15.384Z,43.77
2018-09-04T19:18:44.811Z,45.23
2018-09-04T19:21:14.122Z,45.27
2018-09-04T19:23:43.679Z,44.63
2018-09-04T19:26:13.102Z,45.10
2018-09-04T19:28:42.596Z,42.23
2018-09-04T19:31:12.416Z,44.63
2018-09-04T19:33:41.757Z,47.77
2018-09-04T19:36:11.993Z,46.97
2018-09-04T19:38:41.483Z,46.43
2018-09-04T19:41:11.329Z,48.53
2018-09-04T19:43:40.954Z,47.83
2018-09-04T19:46:10.423Z,48.20
2018-09-04T19:48:40.136Z,49.80
2018-09-04T19:51:09.723Z,51.60
2018-09-04T19:53:40.759Z,53.07
2018-09-04T19:56:10.425Z,52.97
2018-09-04T19:58:39.975Z,53.70
2018-09-04T20:01:09.419Z,53.97
2018-09-04T20:03:39.234Z,53.13
2018-09-04T20:06:09.555Z,51.57
2018-09-04T20:08:39.730Z,52.27
2018-09-04T20:11:10.611Z,51.13
2018-09-04T20:13:40.997Z,50.80
2018-09-04T20:16:10.419Z,50.20
2018-09-04T20:18:40.538Z,48.13
2018-09-04T20:21:10.053Z,48.13
2018-09-04T20:23:39.947Z,45.93
2018-09-04T20:26:09.404Z,46.53
2018-09-04T20:28:38.981Z,46.80
2018-09-04T20:31:08.772Z,48.20
2018-09-04T20:33:38.280Z,47.87
2018-09-04T20:36:07.592Z,46.53
2018-09-04T20:38:37.090Z,46.13
2018-09-04T20:41:06.585Z,48.53
2018-09-04T20:43:36.228Z,46.60
2018-09-04T20:46:05.830Z,47.20
2018-09-04T20:48:35.950Z,47.63
2018-09-04T20:51:05.699Z,45.63
2018-09-04T20:53:35.180Z,47.87
2018-09-04T20:56:04.718Z,47.70
2018-09-04T20:58:45.240Z,47.97
2018-09-04T21:01:25.971Z,47.43
2018-09-04T21:04:06.626Z,46.90
2018-09-04T21:06:42.158Z,46.50
2018-09-04T21:09:51.737Z,46.30
2018-09-04T21:12:21.479Z,47.03
2018-09-04T21:14:50.923Z,48.23
2018-09-04T21:17:20.527Z,48.53
2018-09-04T21:19:51.193Z,48.27
2018-09-04T21:22:21.041Z,49.23
2018-09-04T21:24:50.677Z,47.13
2018-09-04T21:27:20.289Z,49.40
2018-09-04T21:29:49.659Z,49.27
2018-09-04T21:32:19.569Z,48.73
2018-09-04T21:34:49.555Z,50.23
2018-09-04T21:37:18.895Z,49.43
2018-09-04T21:39:48.299Z,50.07
2018-09-04T21:42:17.781Z,50.13
2018-09-04T21:44:47.841Z,50.10
2018-09-04T21:47:17.752Z,50.07
2018-09-04T21:49:47.049Z,49.87
2018-09-04T21:52:16.612Z,50.77
2018-09-04T21:54:45.983Z,51.33
2018-09-04T21:57:15.274Z,51.53
2018-09-04T21:59:45.325Z,52.67
2018-09-04T22:02:14.792Z,53.43
2018-09-04T22:04:44.812Z,53.10
2018-09-04T22:07:14.810Z,53.93
2018-09-04T22:09:44.074Z,54.00
2018-09-04T22:12:13.692Z,53.73
2018-09-04T22:14:43.143Z,53.20
2018-09-04T22:17:12.445Z,54.10
2018-09-04T22:19:42.067Z,55.73
2018-09-04T22:22:11.458Z,53.77
2018-09-04T22:24:41.123Z,55.07
2018-09-04T22:27:11.943Z,55.17
2018-09-04T22:29:42.877Z,54.60
2018-09-04T22:32:13.368Z,56.80
2018-09-04T22:34:42.790Z,57.47
2018-09-04T22:37:12.508Z,58.67
2018-09-04T22:39:43.127Z,57.90
2018-09-04T22:42:12.551Z,57.30
2018-09-04T22:44:41.830Z,62.47
2018-09-04T22:47:11.341Z,60.40
2018-09-04T22:49:44.845Z,60.67
2018-09-04T22:52:14.595Z,61.37
2018-09-04T22:54:44.505Z,59.87
2018-09-04T22:57:13.858Z,58.75
2018-09-04T22:59:43.424Z,57.77
2018-09-04T23:02:12.816Z,56.07
2018-09-04T23:04:43.688Z,57.33
2018-09-04T23:07:13.213Z,54.90
2018-09-04T23:09:42.638Z,55.97
2018-09-04T23:12:12.286Z,56.57
2018-09-04T23:14:41.682Z,53.43
2018-09-04T23:17:11.323Z,54.67
2018-09-04T23:19:40.780Z,53.17
2018-09-04T23:22:10.399Z,53.40
2018-09-04T23:24:39.883Z,52.93
2018-09-04T23:27:09.513Z,53.23
2018-09-04T23:29:39.695Z,54.03
2018-09-04T23:32:09.130Z,51.70
2018-09-04T23:34:39.547Z,55.67
2018-09-04T23:37:08.983Z,55.20
2018-09-04T23:39:38.272Z,55.43
2018-09-04T23:42:07.888Z,55.80
2018-09-04T23:44:37.390Z,54.77
2018-09-04T23:47:07.305Z,54.77
2018-09-04T23:49:36.689Z,55.67
2018-09-04T23:52:06.733Z,56.60
2018-09-04T23:54:36.943Z,56.67
2018-09-04T23:57:06.780Z,57.10
2018-09-04T23:59:36.103Z,55.60
